createdAt,value
2019-04-06T00:00:59.269Z,44.47
2019-04-06T00:03:27.714Z,42.73
2019-04-06T00:05:56.153Z,43.50
2019-04-06T00:08:24.597Z,43.30
2019-04-06T00:10:55.072Z,44.87
2019-04-06T00:13:23.395Z,44.20
2019-04-06T00:15:51.927Z,44.53
2019-04-06T00:18:20.451Z,44.37
2019-04-06T00:20:48.894Z,44.87
2019-04-06T00:23:17.338Z,43.63
2019-04-06T00:25:45.866Z,44.13
2019-04-06T00:28:14.390Z,44.07
2019-04-06T00:31:02.600Z,44.87
2019-04-06T00:33:32.110Z,46.00
2019-04-06T00:36:00.556Z,45.87
2019-04-06T00:38:29.082Z,44.93
2019-04-06T00:40:57.525Z,47.10
2019-04-06T00:43:25.998Z,44.60
2019-04-06T00:45:54.510Z,45.40
2019-04-06T00:48:22.955Z,46.03
2019-04-06T00:50:51.398Z,45.00
2019-04-06T00:53:19.860Z,45.23
2019-04-06T00:55:55.384Z,46.27
2019-04-06T00:58:18.929Z,45.90
2019-04-06T01:00:47.429Z,46.07
2019-04-06T01:03:15.862Z,43.40
2019-04-06T01:05:44.307Z,44.43
2019-04-06T01:08:12.838Z,44.67
2019-04-06T01:10:41.285Z,46.87
2019-04-06T01:13:09.729Z,44.67
2019-04-06T01:15:38.186Z,43.57
2019-04-06T01:18:06.635Z,43.93
2019-04-06T01:20:35.102Z,48.70
2019-04-06T01:23:03.552Z,45.00
2019-04-06T01:25:31.989Z,46.80
2019-04-06T01:28:00.431Z,47.80
2019-04-06T01:30:28.873Z,48.73
2019-04-06T01:32:57.322Z,47.43
2019-04-06T01:35:25.766Z,46.10
2019-04-06T01:37:54.222Z,47.83
2019-04-06T01:40:22.658Z,47.80
2019-04-06T01:42:51.112Z,47.77
2019-04-06T01:45:19.592Z,47.27
2019-04-06T01:47:48.079Z,47.63
2019-04-06T01:50:16.526Z,48.90
2019-04-06T01:52:44.973Z,46.10
2019-04-06T01:55:13.421Z,46.97
2019-04-06T01:57:41.873Z,46.57
2019-04-06T02:00:12.030Z,47.53
2019-04-06T02:02:42.122Z,45.43
2019-04-06T02:05:10.826Z,46.70
2019-04-06T02:07:39.283Z,47.40
2019-04-06T02:10:08.978Z,45.83
2019-04-06T02:12:37.404Z,47.47
2019-04-06T02:15:06.891Z,47.30
2019-04-06T02:17:35.410Z,45.60
2019-04-06T02:20:05.548Z,45.57
2019-04-06T02:22:34.020Z,46.93
2019-04-06T02:25:02.511Z,49.00
2019-04-06T02:27:31.011Z,45.90
2019-04-06T02:30:12.868Z,45.73
2019-04-06T02:32:59.568Z,46.33
2019-04-06T02:35:32.298Z,46.07
2019-04-06T02:38:05.134Z,47.17
2019-04-06T02:40:41.167Z,46.77
2019-04-06T02:43:14.127Z,47.27
2019-04-06T02:45:42.696Z,45.73
2019-04-06T02:48:11.197Z,45.97
2019-04-06T02:50:39.693Z,45.10
2019-04-06T02:53:08.371Z,45.40
2019-04-06T02:55:36.815Z,45.80
2019-04-06T02:58:05.241Z,44.13
2019-04-06T03:00:33.741Z,47.20
2019-04-06T03:03:02.264Z,45.40
2019-04-06T03:05:30.751Z,45.83
2019-04-06T03:07:59.201Z,47.03
2019-04-06T03:10:27.836Z,45.07
2019-04-06T03:12:56.440Z,45.80
2019-04-06T03:15:24.951Z,43.20
2019-04-06T03:17:53.450Z,43.03
2019-04-06T03:20:22.043Z,44.97
2019-04-06T03:22:50.597Z,43.47
2019-04-06T03:25:19.175Z,44.97
2019-04-06T03:27:47.820Z,45.17
2019-04-06T03:30:16.635Z,43.63
2019-04-06T03:32:45.113Z,42.83
2019-04-06T03:35:13.764Z,43.90
2019-04-06T03:37:42.192Z,42.13
2019-04-06T03:40:11.265Z,44.10
2019-04-06T03:42:39.974Z,42.00
2019-04-06T03:45:08.744Z,43.27
2019-04-06T03:47:37.181Z,41.23
2019-04-06T03:50:06.946Z,43.57
2019-04-06T03:52:35.342Z,43.30
2019-04-06T03:55:04.521Z,42.77
2019-04-06T03:57:33.035Z,42.10
2019-04-06T04:00:01.428Z,43.00
2019-04-06T04:02:29.835Z,43.00
2019-04-06T04:04:58.251Z,43.33
2019-04-06T04:07:26.655Z,44.87
2019-04-06T04:09:55.089Z,44.13
2019-04-06T04:12:23.684Z,41.83
2019-04-06T04:14:52.202Z,43.13
2019-04-06T04:17:20.610Z,42.73
2019-04-06T04:19:49.035Z,42.07
2019-04-06T04:22:17.443Z,45.90
2019-04-06T04:24:46.110Z,44.87
2019-04-06T04:27:27.634Z,44.53
2019-04-06T04:29:44.792Z,43.73
2019-04-06T04:32:13.463Z,44.23
2019-04-06T04:34:41.958Z,44.50
2019-04-06T04:37:10.363Z,44.90
2019-04-06T04:39:38.940Z,44.47
2019-04-06T04:42:07.448Z,43.67
2019-04-06T04:44:35.855Z,45.73
2019-04-06T04:47:04.268Z,45.70
2019-04-06T04:49:32.681Z,45.17
2019-04-06T04:52:01.090Z,43.73
2019-04-06T04:54:29.495Z,44.17
2019-04-06T04:56:57.910Z,44.97
2019-04-06T04:59:26.356Z,45.50
2019-04-06T05:01:54.984Z,45.20
2019-04-06T05:04:23.541Z,43.83
2019-04-06T05:06:52.138Z,43.50
2019-04-06T05:09:20.534Z,44.60
2019-04-06T05:11:49.167Z,46.73
2019-04-06T05:14:55.854Z,44.13
2019-04-06T05:17:24.278Z,44.40
2019-04-06T05:19:52.682Z,43.20
2019-04-06T05:22:21.094Z,44.83
2019-04-06T05:24:49.658Z,44.47
2019-04-06T05:27:18.220Z,45.03
2019-04-06T05:29:46.706Z,43.63
2019-04-06T05:32:15.111Z,42.73
2019-04-06T05:34:43.664Z,44.57
2019-04-06T05:37:12.114Z,44.93
2019-04-06T05:39:40.528Z,45.10
2019-04-06T05:42:08.943Z,43.90
2019-04-06T05:44:37.346Z,45.67
2019-04-06T05:47:05.822Z,46.97
2019-04-06T05:49:34.223Z,44.53
2019-04-06T05:52:02.813Z,44.37
2019-04-06T05:54:31.223Z,43.37
2019-04-06T05:56:59.622Z,43.77
2019-04-06T05:59:28.048Z,44.73
2019-04-06T06:01:56.707Z,43.73
2019-04-06T06:04:25.110Z,44.80
2019-04-06T06:06:53.617Z,44.53
2019-04-06T06:09:22.023Z,44.30
2019-04-06T06:11:50.435Z,46.00
2019-04-06T06:14:18.857Z,45.13
2019-04-06T06:16:47.258Z,44.60
2019-04-06T06:19:15.742Z,44.07
2019-04-06T06:21:44.174Z,43.23
2019-04-06T06:24:12.583Z,44.77
2019-04-06T06:26:41.151Z,43.30
2019-04-06T06:29:09.675Z,44.30
2019-04-06T06:31:38.083Z,42.30
2019-04-06T06:34:06.963Z,44.33
2019-04-06T06:36:35.449Z,43.17
2019-04-06T06:39:06.139Z,44.03
2019-04-06T06:41:34.536Z,45.50
2019-04-06T06:44:02.946Z,43.97
2019-04-06T06:46:31.414Z,43.47
2019-04-06T06:48:59.960Z,43.27
2019-04-06T06:51:28.653Z,42.77
2019-04-06T06:53:57.183Z,43.83
2019-04-06T06:56:25.587Z,42.50
2019-04-06T06:58:53.995Z,44.77
2019-04-06T07:01:22.405Z,42.70
2019-04-06T07:03:50.884Z,44.10
2019-04-06T07:06:19.314Z,43.80
2019-04-06T07:08:47.955Z,42.23
2019-04-06T07:11:16.350Z,43.53
2019-04-06T07:13:44.754Z,44.80
2019-04-06T07:16:13.158Z,43.60
2019-04-06T07:18:41.565Z,44.73
2019-04-06T07:21:10.161Z,43.87
2019-04-06T07:23:38.618Z,44.63
2019-04-06T07:26:07.022Z,44.30
2019-04-06T07:28:38.418Z,44.93
2019-04-06T07:31:05.732Z,43.37
2019-04-06T07:33:34.127Z,43.57
2019-04-06T07:36:02.610Z,42.73
2019-04-06T07:38:31.017Z,44.07
2019-04-06T07:40:59.437Z,42.87
2019-04-06T07:43:28.233Z,44.53
2019-04-06T07:45:56.694Z,44.27
2019-04-06T07:48:25.174Z,44.97
2019-04-06T07:50:53.600Z,43.50
2019-04-06T07:53:22.263Z,43.40
2019-04-06T07:55:50.678Z,45.23
2019-04-06T07:58:19.313Z,44.03
2019-04-06T08:00:48.164Z,43.23
2019-04-06T08:03:16.246Z,44.23
2019-04-06T08:05:44.660Z,43.87
2019-04-06T08:08:13.333Z,43.70
2019-04-06T08:10:41.698Z,44.17
2019-04-06T08:13:10.102Z,44.23
2019-04-06T08:15:38.752Z,42.73
2019-04-06T08:18:07.226Z,43.73
2019-04-06T08:20:35.641Z,44.13
2019-04-06T08:23:04.046Z,43.13
2019-04-06T08:25:32.569Z,42.53
2019-04-06T08:28:00.946Z,43.77
2019-04-06T08:30:29.367Z,43.50
2019-04-06T08:32:57.850Z,43.17
2019-04-06T08:35:26.873Z,41.93
2019-04-06T08:37:55.459Z,44.07
2019-04-06T08:40:23.870Z,44.23
2019-04-06T08:42:52.274Z,44.33
2019-04-06T08:45:20.690Z,44.83
2019-04-06T08:47:49.098Z,43.77
2019-04-06T08:50:17.913Z,43.70
2019-04-06T08:52:46.433Z,42.97
2019-04-06T08:55:14.859Z,39.50
2019-04-06T08:57:43.335Z,40.53
2019-04-06T09:00:12.295Z,41.83
2019-04-06T09:02:40.911Z,40.47
2019-04-06T09:05:09.827Z,40.10
2019-04-06T09:07:40.591Z,40.00
2019-04-06T09:10:08.702Z,41.70
2019-04-06T09:12:37.106Z,41.60
2019-04-06T09:15:07.926Z,40.83
2019-04-06T09:17:36.336Z,40.43
2019-04-06T09:20:07.135Z,38.67
2019-04-06T09:22:35.206Z,38.80
2019-04-06T09:25:04.903Z,39.43
2019-04-06T09:27:33.307Z,39.77
2019-04-06T09:30:01.768Z,40.43
2019-04-06T09:32:30.204Z,39.57
2019-04-06T09:34:58.610Z,39.50
2019-04-06T09:37:27.024Z,39.00
2019-04-06T09:39:55.459Z,40.20
2019-04-06T09:42:23.862Z,38.83
2019-04-06T09:44:56.931Z,39.37
2019-04-06T09:47:32.839Z,38.77
2019-04-06T09:50:19.015Z,39.20
2019-04-06T09:52:52.035Z,38.87
2019-04-06T09:55:24.950Z,40.17
2019-04-06T09:57:57.945Z,39.63
2019-04-06T10:00:42.482Z,38.80
2019-04-06T10:03:29.235Z,39.17
2019-04-06T10:06:08.355Z,39.70
2019-04-06T10:08:47.110Z,40.40
2019-04-06T10:11:35.631Z,38.47
2019-04-06T10:14:05.902Z,38.20
2019-04-06T10:16:54.059Z,39.73
2019-04-06T10:19:26.867Z,38.73
2019-04-06T10:21:59.739Z,41.03
2019-04-06T10:24:29.783Z,37.50
2019-04-06T10:27:02.669Z,38.33
2019-04-06T10:29:33.070Z,39.20
2019-04-06T10:32:03.569Z,39.00
2019-04-06T10:34:45.742Z,39.13
2019-04-06T10:37:15.798Z,38.80
2019-04-06T10:39:48.650Z,39.60
2019-04-06T10:42:19.919Z,39.47
2019-04-06T10:44:50.095Z,38.40
2019-04-06T10:47:26.249Z,40.77
2019-04-06T10:50:02.276Z,39.63
2019-04-06T10:52:32.418Z,38.77
2019-04-06T10:55:05.142Z,39.77
2019-04-06T10:57:41.475Z,39.67
2019-04-06T11:00:23.523Z,40.30
2019-04-06T11:02:59.035Z,38.47
2019-04-06T11:05:35.281Z,38.13
2019-04-06T11:08:21.443Z,38.63
2019-04-06T11:11:02.511Z,39.33
2019-04-06T11:13:32.335Z,38.83
2019-04-06T11:16:20.490Z,38.87
2019-04-06T11:18:55.998Z,36.53
2019-04-06T11:21:32.019Z,37.70
2019-04-06T11:24:02.067Z,35.90
2019-04-06T11:26:35.156Z,36.20
2019-04-06T11:29:05.341Z,36.77
2019-04-06T11:31:51.942Z,36.50
2019-04-06T11:34:33.950Z,36.47
2019-04-06T11:37:06.839Z,37.37
2019-04-06T11:39:39.560Z,36.70
2019-04-06T11:42:21.911Z,38.50
2019-04-06T11:44:51.973Z,37.70
2019-04-06T11:47:40.479Z,37.77
2019-04-06T11:50:16.715Z,35.67
2019-04-06T11:52:49.692Z,38.50
2019-04-06T11:55:37.875Z,36.53
2019-04-06T11:58:07.947Z,37.13
2019-04-06T12:00:38.007Z,37.03
2019-04-06T12:03:08.055Z,37.87
2019-04-06T12:05:41.216Z,36.40
2019-04-06T12:08:27.870Z,37.47
2019-04-06T12:10:57.930Z,36.77
2019-04-06T12:13:33.784Z,38.33
2019-04-06T12:16:15.631Z,36.83
2019-04-06T12:18:51.637Z,37.50
2019-04-06T12:21:21.715Z,36.13
2019-04-06T12:26:27.550Z,38.07
2019-04-06T12:29:16.933Z,37.47
2019-04-06T12:31:47.190Z,37.63
2019-04-06T12:34:33.785Z,37.97
2019-04-06T12:37:03.925Z,37.27
2019-04-06T12:39:52.267Z,37.83
2019-04-06T12:42:17.719Z,38.73
2019-04-06T12:45:04.243Z,40.17
2019-04-06T12:47:37.233Z,38.77
2019-04-06T12:50:11.195Z,39.50
2019-04-06T12:52:44.717Z,38.87
2019-04-06T12:55:30.150Z,38.93
2019-04-06T12:58:09.063Z,37.63
2019-04-06T13:00:52.693Z,36.67
2019-04-06T13:03:32.111Z,37.93
2019-04-06T13:06:14.047Z,37.37
2019-04-06T13:08:44.397Z,37.60
2019-04-06T13:11:26.644Z,37.87
2019-04-06T13:13:59.678Z,37.87
2019-04-06T13:16:32.442Z,38.43
2019-04-06T13:19:20.538Z,37.00
2019-04-06T13:21:56.438Z,37.57
2019-04-06T13:24:26.587Z,39.03
2019-04-06T13:27:02.178Z,38.63
2019-04-06T13:29:35.151Z,39.40
2019-04-06T13:32:11.137Z,38.83
2019-04-06T13:34:43.657Z,39.60
2019-04-06T13:37:19.890Z,38.07
2019-04-06T13:40:06.842Z,39.30
2019-04-06T13:42:48.879Z,38.20
2019-04-06T13:45:18.927Z,37.20
2019-04-06T13:47:52.340Z,39.13
2019-04-06T13:50:31.602Z,36.60
2019-04-06T13:53:07.889Z,37.93
2019-04-06T13:55:56.377Z,37.47
2019-04-06T13:58:29.051Z,36.17
2019-04-06T14:01:17.135Z,37.50
2019-04-06T14:03:58.164Z,37.33
2019-04-06T14:06:28.178Z,37.37
2019-04-06T14:09:04.198Z,36.93
2019-04-06T14:11:38.056Z,36.27
2019-04-06T14:14:20.511Z,35.20
2019-04-06T14:17:05.731Z,37.77
2019-04-06T14:19:47.664Z,35.23
2019-04-06T14:22:26.562Z,35.20
2019-04-06T14:25:08.619Z,35.00
2019-04-06T14:27:53.463Z,34.60
2019-04-06T14:30:42.187Z,32.90
2019-04-06T14:33:12.296Z,34.77
2019-04-06T14:36:00.468Z,35.63
2019-04-06T14:38:33.710Z,38.47
2019-04-06T14:41:20.364Z,34.83
2019-04-06T14:43:56.728Z,36.00
2019-04-06T14:46:35.878Z,47.57
2019-04-06T14:49:29.458Z,37.13
2019-04-06T14:51:59.725Z,35.60
2019-04-06T14:54:32.369Z,33.77
2019-04-06T14:57:02.530Z,36.67
2019-04-06T14:59:47.619Z,33.87
2019-04-06T15:02:34.806Z,33.30
2019-04-06T15:05:05.819Z,36.30
2019-04-06T15:07:41.630Z,34.13
2019-04-06T15:10:14.658Z,32.20
2019-04-06T15:12:44.767Z,31.93
2019-04-06T15:15:21.034Z,32.60
2019-04-06T15:17:56.881Z,32.83
2019-04-06T15:20:27.185Z,31.90
2019-04-06T15:23:13.554Z,30.77
2019-04-06T15:26:00.582Z,31.10
2019-04-06T15:28:45.687Z,30.87
2019-04-06T15:31:24.945Z,31.10
2019-04-06T15:34:07.173Z,31.20
2019-04-06T15:36:49.749Z,30.23
2019-04-06T15:39:20.264Z,29.67
2019-04-06T15:41:56.164Z,30.73
2019-04-06T15:44:37.010Z,31.70
2019-04-06T15:47:10.205Z,30.53
2019-04-06T15:49:46.379Z,30.77
2019-04-06T15:52:16.973Z,27.57
2019-04-06T15:54:47.068Z,29.13
2019-04-06T15:57:23.407Z,29.47
2019-04-06T16:00:08.511Z,29.03
2019-04-06T16:02:38.568Z,27.43
2019-04-06T16:05:21.428Z,28.73
2019-04-06T16:08:06.843Z,28.77
2019-04-06T16:10:42.491Z,28.63
2019-04-06T16:13:21.394Z,26.97
2019-04-06T16:15:51.526Z,29.17
2019-04-06T16:18:37.850Z,29.83
2019-04-06T16:21:24.079Z,29.63
2019-04-06T16:24:06.183Z,29.67
2019-04-06T16:26:48.388Z,29.73
2019-04-06T16:29:24.828Z,28.07
2019-04-06T16:32:13.915Z,29.80
2019-04-06T16:34:44.006Z,30.00
2019-04-06T16:37:30.882Z,29.73
2019-04-06T16:40:04.130Z,29.43
2019-04-06T16:42:39.870Z,29.97
2019-04-06T16:45:22.145Z,30.00
2019-04-06T16:47:52.520Z,29.97
2019-04-06T16:50:25.282Z,30.63
2019-04-06T16:52:57.953Z,31.37
2019-04-06T16:55:31.325Z,30.27
2019-04-06T16:58:17.831Z,29.70
2019-04-06T17:00:50.940Z,30.47
2019-04-06T17:03:23.559Z,29.43
2019-04-06T17:06:11.947Z,30.60
2019-04-06T17:08:58.790Z,30.23
2019-04-06T17:11:44.190Z,30.47
2019-04-06T17:14:14.734Z,30.03
2019-04-06T17:16:47.679Z,30.20
2019-04-06T17:19:30.550Z,35.33
2019-04-06T17:22:15.455Z,33.53
2019-04-06T17:24:51.162Z,32.47
2019-04-06T17:27:36.190Z,31.13
2019-04-06T17:30:11.340Z,32.50
2019-04-06T17:32:44.099Z,33.63
2019-04-06T17:35:14.150Z,33.13
2019-04-06T17:37:44.200Z,33.97
2019-04-06T17:40:14.486Z,32.63
2019-04-06T17:42:44.539Z,31.73
2019-04-06T17:45:20.609Z,32.97
2019-04-06T17:47:50.723Z,31.83
2019-04-06T17:50:37.644Z,33.50
2019-04-06T17:53:22.554Z,31.83
2019-04-06T17:56:08.166Z,33.50
2019-04-06T17:58:53.102Z,33.97
2019-04-06T18:01:41.450Z,33.47
2019-04-06T18:04:11.601Z,34.73
2019-04-06T18:06:41.622Z,38.97
2019-04-06T18:09:30.439Z,35.37
2019-04-06T18:12:00.826Z,36.47
2019-04-06T18:14:29.302Z,33.47
2019-04-06T18:16:58.279Z,34.70
2019-04-06T18:19:27.211Z,35.13
2019-04-06T18:21:55.676Z,34.60
2019-04-06T18:24:24.207Z,33.37
2019-04-06T18:26:52.612Z,34.43
2019-04-06T18:29:21.019Z,35.47
2019-04-06T18:32:00.366Z,34.97
2019-04-06T18:34:28.767Z,37.30
2019-04-06T18:36:59.000Z,36.67
2019-04-06T18:39:27.970Z,36.93
2019-04-06T18:41:56.443Z,36.17
2019-04-06T18:44:25.572Z,36.87
2019-04-06T18:46:54.102Z,37.30
2019-04-06T18:49:22.788Z,38.10
2019-04-06T18:51:51.665Z,38.50
2019-04-06T18:54:20.142Z,37.93
2019-04-06T18:56:48.559Z,40.07
2019-04-06T18:59:16.963Z,38.93
2019-04-06T19:01:45.878Z,39.70
2019-04-06T19:04:14.367Z,41.00
2019-04-06T19:06:43.181Z,39.47
2019-04-06T19:09:22.459Z,39.97
2019-04-06T19:11:52.880Z,43.00
2019-04-06T19:14:12.433Z,41.63
2019-04-06T19:16:41.076Z,43.03
2019-04-06T19:19:09.666Z,44.07
2019-04-06T19:21:38.074Z,45.00
2019-04-06T19:24:06.628Z,46.53
2019-04-06T19:26:37.284Z,47.70
2019-04-06T19:29:05.267Z,50.23
2019-04-06T19:31:33.670Z,49.83
2019-04-06T19:34:02.328Z,62.53
2019-04-06T19:36:30.782Z,73.33
2019-04-06T19:38:59.491Z,87.50
2019-04-06T19:41:28.026Z,85.87
2019-04-06T19:43:56.610Z,83.53
2019-04-06T19:46:25.118Z,89.67
2019-04-06T19:48:53.643Z,75.47
2019-04-06T19:51:22.645Z,70.67
2019-04-06T19:53:51.162Z,69.67
2019-04-06T19:56:20.083Z,61.93
2019-04-06T19:58:48.593Z,57.57
2019-04-06T20:01:17.500Z,62.73
2019-04-06T20:03:45.990Z,61.00
2019-04-06T20:06:14.518Z,59.27
2019-04-06T20:08:42.920Z,56.77
2019-04-06T20:11:11.326Z,60.20
2019-04-06T20:13:40.038Z,56.63
2019-04-06T20:16:08.431Z,56.80
2019-04-06T20:18:36.875Z,55.27
2019-04-06T20:21:06.014Z,54.97
2019-04-06T20:23:34.598Z,56.10
2019-04-06T20:26:03.416Z,55.13
2019-04-06T20:28:32.064Z,54.30
2019-04-06T20:31:00.647Z,49.57
2019-04-06T20:33:29.539Z,51.53
2019-04-06T20:35:58.660Z,51.97
2019-04-06T20:38:27.596Z,47.67
2019-04-06T20:40:56.236Z,46.67
2019-04-06T20:43:25.202Z,46.40
2019-04-06T20:45:53.608Z,46.20
2019-04-06T20:48:22.020Z,48.30
2019-04-06T20:50:51.212Z,44.80
2019-04-06T20:53:19.926Z,46.53
2019-04-06T20:55:48.679Z,47.50
2019-04-06T20:58:16.870Z,46.33
2019-04-06T21:00:45.807Z,47.07
2019-04-06T21:03:15.194Z,46.07
2019-04-06T21:05:44.138Z,45.47
2019-04-06T21:08:12.566Z,46.20
2019-04-06T21:10:40.970Z,47.03
2019-04-06T21:13:09.814Z,46.33
2019-04-06T21:15:38.569Z,47.13
2019-04-06T21:18:06.966Z,46.83
2019-04-06T21:20:35.573Z,46.80
2019-04-06T21:23:15.646Z,45.77
2019-04-06T21:25:44.135Z,46.10
2019-04-06T21:28:14.423Z,46.50
2019-04-06T21:30:43.172Z,45.97
2019-04-06T21:33:12.259Z,47.03
2019-04-06T21:35:40.806Z,46.17
2019-04-06T21:38:09.191Z,44.67
2019-04-06T21:40:37.606Z,43.97
2019-04-06T21:43:06.013Z,43.60
2019-04-06T21:45:34.453Z,41.57
2019-04-06T21:48:04.282Z,43.20
2019-04-06T21:50:33.122Z,43.43
2019-04-06T21:53:01.658Z,43.60
2019-04-06T21:55:30.090Z,41.47
2019-04-06T21:57:58.485Z,41.13
2019-04-06T22:00:38.537Z,42.80
2019-04-06T22:03:07.113Z,41.90
2019-04-06T22:05:36.229Z,38.67
2019-04-06T22:08:04.965Z,40.37
2019-04-06T22:10:33.475Z,38.70
2019-04-06T22:13:01.908Z,38.50
2019-04-06T22:15:30.518Z,38.40
2019-04-06T22:17:59.090Z,39.13
2019-04-06T22:20:28.059Z,38.87
2019-04-06T22:22:57.272Z,38.50
2019-04-06T22:25:25.790Z,35.40
2019-04-06T22:27:54.200Z,35.07
2019-04-06T22:30:22.525Z,32.03
2019-04-06T22:32:51.361Z,33.63
2019-04-06T22:35:20.435Z,34.23
2019-04-06T22:37:48.847Z,35.83
2019-04-06T22:40:18.115Z,36.30
2019-04-06T22:42:46.739Z,35.73
2019-04-06T22:45:17.503Z,38.03
2019-04-06T22:47:46.304Z,36.40
2019-04-06T22:50:15.359Z,35.47
2019-04-06T22:52:43.742Z,38.87
2019-04-06T22:55:12.802Z,37.43
2019-04-06T22:57:41.306Z,34.43
2019-04-06T23:00:12.434Z,32.20
2019-04-06T23:02:42.782Z,34.30
2019-04-06T23:05:24.685Z,32.03
2019-04-06T23:07:53.455Z,32.17
2019-04-06T23:10:21.988Z,31.40
2019-04-06T23:12:50.410Z,32.20
2019-04-06T23:15:18.830Z,32.63
2019-04-06T23:17:47.687Z,33.33
2019-04-06T23:20:16.299Z,32.57
2019-04-06T23:22:44.799Z,33.90
2019-04-06T23:25:13.419Z,33.80
2019-04-06T23:27:42.066Z,34.37
2019-04-06T23:30:11.005Z,33.53
2019-04-06T23:32:39.929Z,32.53
2019-04-06T23:35:08.467Z,33.17
2019-04-06T23:37:36.884Z,33.37
2019-04-06T23:40:08.369Z,33.63
2019-04-06T23:42:36.824Z,33.37
2019-04-06T23:45:06.934Z,34.00
2019-04-06T23:47:35.966Z,40.07
2019-04-06T23:50:06.620Z,36.67
2019-04-06T23:52:35.444Z,33.63
2019-04-06T23:55:08.354Z,33.47
2019-04-06T23:57:37.240Z,32.10
